zaojiao.com alexa rank chart, zaojiao.com alexa rank daily changes

zaojiao.com alexa rank chart, zaojiao.com alexa rank daily changes

zaojiao.com
Actual rank:
536 615

RANK HISTORY

Date Rank Diff
2017/11/18 536 615 +70 392
2017/11/17 466 223 -12 246
2017/11/16 478 469 +2 295
2017/11/15 476 174 +7 373
2017/11/14 468 801 -83 533
2017/11/13 552 334 +23 371
2017/11/12 528 963 +8 214
2017/11/11 520 749 +16 746
2017/11/10 504 003 +76 282
2017/11/09 427 721 +2 002
2017/11/08 425 719 +1 317
2017/11/07 424 402 -14 150
2017/11/06 438 552 -11 620
2017/11/05 450 172 +6 183
2017/11/04 443 989 +2 928
2017/11/03 441 061 -329
2017/11/02 441 390 -13 093
2017/11/01 454 483 -1 519
2017/10/31 456 002 +3 374
2017/10/30 452 628 -10 613
2017/10/29 463 241 +40 331
2017/10/28 422 910 -5 875
2017/10/27 428 785 -508
2017/10/26 429 293 +1 541
2017/10/25 427 752 +8 087
2017/10/24 419 665 -671
2017/10/23 420 336 -7 336
2017/10/22 427 672 -2 519
2017/10/21 430 191 -46 770
2017/10/20 476 961 -7 051
2017/10/19 484 012 -8 576
2017/10/18 492 588 -63 364
2017/10/17 555 952 -1 683
2017/10/16 557 635 -15 938
2017/10/14 573 573 -1 021
2017/10/13 574 594 -31 874
2017/10/12 606 468 -10 498
2017/10/11 616 966 -24 437
2017/10/10 641 403 -174 856
2017/10/09 816 259 -3 938
2017/10/08 820 197 -8 109
2017/10/07 828 306 +72 550
2017/10/06 755 756 -21 621
2017/10/05 777 377 -15 061
2017/10/04 792 438 -12 267
2017/10/03 804 705 -23 004
2017/10/02 827 709 +16 679
2017/10/01 811 030 -21 212
2017/09/30 832 242 +40 509
2017/09/29 791 733 -109 678
2017/09/28 901 411 +36 086
2017/09/27 865 325 -20 693
2017/09/26 886 018 -3 372
2017/09/25 889 390 -36 080
2017/09/24 925 470 +71 356
2017/09/23 854 114 +16 340
2017/09/22 837 774 +47 232
2017/09/20 790 542 +1 334
2017/09/19 789 208

WIDGET FOR YOUR SITE

DOMAINS WITH THE NEAREST RANK

Domain Rank
kinetic4health.co.uk 536 610
vigattintourism.com 536 611
kupojiankang.com 536 612
in2.hr 536 613
andalunet.com 536 614
zaojiao.com 536 615
grinta.be 536 616
soen.kr 536 617
gravaiassis.com.br 536 618
feelingsuccess.com 536 619
alfalaval.org 536 620

DOMAINS WITH THE NEAREST RANK BY TLD .com

Domain Rank
aefreedownload.com 536 606
marketingmerenda.com 536 609
vigattintourism.com 536 611
kupojiankang.com 536 612
andalunet.com 536 614
zaojiao.com 536 615
feelingsuccess.com 536 619
lostplate.com 536 624
babushkabooks.com 536 626
poemsource.com 536 628
cyberhades.com 536 629